Time;durP1;ratioP1;P1;durP2;ratioP2;P2;SDS_P1;SDS_P2;PMS_P1;PMS_P2;Temp;Humidity;BMP_temperature;BMP_pressure;BME280_temperature;BME280_humidity;BME280_pressure;Samples;Min_cycle;Max_cycle;Signal;HPM_P1;HPM_P2
2023/05/02 00:01:48;;;;;;;17.45;9.02;;;;;;;14.64;67.82;102209.13;4987495;28;20053;-42
2023/05/02 00:04:14;;;;;;;18.02;8.82;;;;;;;15.08;66.70;102202.00;4985661;28;20034;-45
2023/05/02 00:06:41;;;;;;;14.30;8.70;;;;;;;15.01;66.80;102208.91;4980866;28;25766;-46
2023/05/02 00:09:06;;;;;;;16.90;8.70;;;;;;;15.02;66.55;102208.06;4984300;28;20034;-43
2023/05/02 00:11:31;;;;;;;13.23;7.63;;;;;;;14.90;67.20;102220.09;4980062;28;20037;-44
2023/05/02 00:13:57;;;;;;;14.30;7.10;;;;;;;15.14;65.95;102207.38;4982742;28;20501;-43
2023/05/02 00:16:22;;;;;;;10.07;6.40;;;;;;;15.00;66.61;102215.00;4979499;28;20169;-46
2023/05/02 00:18:48;;;;;;;11.40;5.78;;;;;;;14.95;66.73;102208.81;4983160;28;20137;-44
2023/05/02 00:21:13;;;;;;;12.05;5.88;;;;;;;15.10;65.78;102208.19;4982955;28;20066;-44
2023/05/02 00:23:38;;;;;;;13.32;5.50;;;;;;;14.94;66.28;102214.91;4979076;28;20058;-44
2023/05/02 00:26:08;;;;;;;10.38;5.35;;;;;;;14.66;67.37;102217.94;4983075;28;20034;-43
2023/05/02 00:28:33;;;;;;;10.00;4.63;;;;;;;15.00;66.39;102222.03;4979573;28;20050;-44
2023/05/02 00:30:58;;;;;;;10.25;4.93;;;;;;;14.86;66.56;102221.78;4982784;28;20508;-43
2023/05/02 00:33:24;;;;;;;11.57;5.60;;;;;;;14.48;67.71;102225.47;4979639;28;20038;-44
2023/05/02 00:35:50;;;;;;;12.85;5.10;;;;;;;14.57;67.55;102216.03;4983962;28;20060;-46
2023/05/02 00:38:15;;;;;;;13.95;5.30;;;;;;;14.94;66.88;102214.06;4980689;28;20481;-51
2023/05/02 00:40:45;;;;;;;10.13;5.22;;;;;;;14.77;67.03;102210.22;4983608;28;20118;-43
2023/05/02 00:43:11;;;;;;;12.15;5.53;;;;;;;14.43;68.57;102220.13;4984136;28;20051;-42
2023/05/02 00:45:39;;;;;;;9.90;5.28;;;;;;;14.80;67.37;102212.94;4981854;28;20034;-45
2023/05/02 00:48:05;;;;;;;10.57;4.60;;;;;;;14.80;67.10;102212.94;4985232;28;20559;-42
2023/05/02 00:50:32;;;;;;;11.52;4.97;;;;;;;14.48;67.41;102217.59;4979788;28;20030;-44
2023/05/02 00:52:59;;;;;;;9.07;4.60;;;;;;;14.37;67.99;102219.09;4984955;28;20027;-48
2023/05/02 00:55:25;;;;;;;12.63;4.72;;;;;;;14.63;67.19;102231.00;4982524;28;20113;-42
2023/05/02 00:57:51;;;;;;;9.98;5.10;;;;;;;14.99;66.36;102236.91;4983608;28;20146;-52
2023/05/02 01:00:16;;;;;;;13.43;4.15;;;;;;;14.61;66.81;102236.22;4978118;28;20607;-44
2023/05/02 01:02:52;;;;;;;11.20;4.18;;;;;;;14.38;66.75;102248.03;4981310;28;20121;-43
2023/05/02 01:05:22;;;;;;;12.77;3.72;;;;;;;14.34;66.77;102243.53;4978706;28;20044;-44
2023/05/02 01:07:59;;;;;;;9.38;3.30;;;;;;;14.66;64.94;102236.28;4982795;28;20523;-43
2023/05/02 01:10:37;;;;;;;8.02;3.33;;;;;;;14.86;64.54;102242.81;4980764;28;20045;-46
2023/05/02 01:13:09;;;;;;;6.72;3.10;;;;;;;14.80;64.55;102240.06;4987213;28;20501;-46
2023/05/02 01:15:37;;;;;;;11.27;3.00;;;;;;;14.25;65.63;102248.59;4984213;28;20030;-43
2023/05/02 01:18:06;;;;;;;7.15;3.20;;;;;;;14.76;64.19;102247.88;4986763;28;20058;-43
2023/05/02 01:20:37;;;;;;;9.20;3.20;;;;;;;14.57;64.40;102246.66;4983177;28;20302;-44
2023/05/02 01:23:13;;;;;;;8.35;3.17;;;;;;;14.76;63.22;102237.38;4985472;28;20042;-43
2023/05/02 01:26:13;;;;;;;13.05;3.45;;;;;;;14.37;64.28;102248.88;4982437;28;20039;-45
2023/05/02 01:29:01;;;;;;;12.18;3.90;;;;;;;14.95;63.23;102245.56;4981873;28;20047;-45
2023/05/02 01:31:31;;;;;;;11.70;4.05;;;;;;;14.83;63.33;102252.34;4982362;28;20038;-46
2023/05/02 01:33:59;;;;;;;14.95;4.43;;;;;;;14.50;64.12;102252.63;4986157;28;20044;-42
2023/05/02 01:36:29;;;;;;;14.25;4.07;;;;;;;14.06;65.48;102254.31;4981837;28;20036;-43
2023/05/02 01:38:56;;;;;;;11.15;3.85;;;;;;;14.80;63.56;102262.81;4985771;28;20088;-49
2023/05/02 01:41:25;;;;;;;15.00;3.72;;;;;;;14.13;65.44;102271.94;4981953;28;20037;-44
2023/05/02 01:43:52;;;;;;;8.65;3.38;;;;;;;14.38;64.63;102276.00;4986913;28;20035;-46
2023/05/02 01:46:20;;;;;;;8.02;3.42;;;;;;;14.75;63.12;102270.59;4988152;28;20034;-45
2023/05/02 01:48:48;;;;;;;9.35;3.45;;;;;;;14.22;63.87;102275.63;4990982;28;20042;-44
2023/05/02 01:51:16;;;;;;;10.15;3.50;;;;;;;14.27;63.30;102277.50;4986177;28;20085;-44
2023/05/02 01:53:44;;;;;;;7.70;3.28;;;;;;;14.25;62.67;102279.19;4987704;28;20058;-44
2023/05/02 01:56:10;;;;;;;8.20;3.10;;;;;;;14.54;62.29;102280.69;4991525;28;20162;-43
2023/05/02 01:58:37;;;;;;;9.35;3.10;;;;;;;14.43;62.17;102285.72;4985638;28;20113;-43
2023/05/02 02:01:03;;;;;;;7.55;2.80;;;;;;;14.57;61.58;102286.91;4984186;28;20505;-44
2023/05/02 02:03:30;;;;;;;7.68;2.97;;;;;;;14.84;60.89;102286.50;4982159;28;20038;-43
2023/05/02 02:05:56;;;;;;;8.15;2.85;;;;;;;14.87;60.13;102297.09;4985868;28;20042;-44
2023/05/02 02:08:23;;;;;;;9.85;2.95;;;;;;;14.87;60.35;102301.44;4981832;28;20444;-44
2023/05/02 02:10:53;;;;;;;10.00;2.95;;;;;;;14.75;60.61;102306.47;4986259;28;20057;-44
2023/05/02 02:13:47;;;;;;;10.60;2.80;;;;;;;14.52;61.50;102316.50;4982229;28;20034;-45
2023/05/02 02:16:20;;;;;;;6.32;2.60;;;;;;;14.63;60.67;102320.25;4982095;28;20433;-47
2023/05/02 02:18:46;;;;;;;8.02;2.30;;;;;;;14.28;61.15;102323.84;4982718;28;20034;-44
2023/05/02 02:21:17;;;;;;;8.75;2.60;;;;;;;14.21;60.71;102318.47;4985772;28;20034;-42
2023/05/02 02:23:46;;;;;;;8.95;2.20;;;;;;;14.58;59.46;102324.50;4981951;28;20101;-46
2023/05/02 02:26:13;;;;;;;6.93;2.40;;;;;;;14.39;60.00;102328.50;4985708;28;20493;-44
2023/05/02 02:28:38;;;;;;;7.18;2.00;;;;;;;14.29;59.35;102321.25;4982698;28;20038;-42
2023/05/02 02:31:03;;;;;;;9.52;2.90;;;;;;;14.26;59.49;102322.94;4984016;28;20404;-42
2023/05/02 02:33:30;;;;;;;10.85;2.28;;;;;;;14.07;59.71;102334.75;4982010;28;20121;-47
2023/05/02 02:36:16;;;;;;;5.93;1.90;;;;;;;14.08;58.96;102328.66;4986053;28;20113;-42
2023/05/02 02:38:47;;;;;;;4.63;1.83;;;;;;;14.16;58.61;102335.84;4983020;28;20472;-47
2023/05/02 02:41:17;;;;;;;7.40;2.03;;;;;;;14.11;58.96;102331.34;4985478;28;20032;-44
2023/05/02 02:43:48;;;;;;;5.78;1.85;;;;;;;14.38;58.22;102325.84;4983039;28;20560;-45
2023/05/02 02:46:28;;;;;;;5.03;1.80;;;;;;;13.90;58.90;102329.16;4986310;28;20034;-44
2023/05/02 02:49:23;;;;;;;6.90;2.03;;;;;;;14.16;58.01;102334.94;4984877;28;20501;-43
2023/05/02 02:51:56;;;;;;;7.68;1.90;;;;;;;14.30;57.39;102346.63;4985291;28;20042;-44
2023/05/02 02:54:44;;;;;;;7.25;1.77;;;;;;;14.04;57.38;102347.78;4985457;28;20546;-47
2023/05/02 02:57:17;;;;;;;7.28;1.70;;;;;;;14.49;56.50;102335.72;4989490;28;20069;-47
2023/05/02 03:00:04;;;;;;;5.07;1.80;;;;;;;14.41;56.75;102339.00;4982447;28;20117;-45
2023/05/02 03:02:32;;;;;;;5.15;1.67;;;;;;;14.13;56.83;102345.38;4981855;28;20049;-42
2023/05/02 03:05:00;;;;;;;8.18;1.83;;;;;;;14.35;56.30;102347.63;4984151;28;20034;-46
2023/05/02 03:07:27;;;;;;;5.40;1.90;;;;;;;14.21;56.65;102354.28;4980895;28;20516;-44
2023/05/02 03:09:53;;;;;;;3.83;1.70;;;;;;;14.34;56.65;102348.47;4985140;28;20571;-45
2023/05/02 03:12:18;;;;;;;6.95;1.80;;;;;;;14.09;56.69;102359.25;4982975;28;20067;-43
2023/05/02 03:14:44;;;;;;;8.93;2.22;;;;;;;14.18;56.65;102363.00;4985024;28;20049;-42
2023/05/02 03:17:09;;;;;;;9.05;2.00;;;;;;;13.86;57.41;102370.97;4985160;28;20038;-45
2023/05/02 03:19:35;;;;;;;5.22;2.00;;;;;;;14.19;57.09;102369.13;4986103;28;20085;-43
2023/05/02 03:22:00;;;;;;;7.55;1.95;;;;;;;14.30;56.86;102370.25;4990775;28;20085;-43
2023/05/02 03:24:26;;;;;;;6.95;2.03;;;;;;;14.14;57.74;102376.91;4983804;28;20056;-46
2023/05/02 03:26:55;;;;;;;9.32;2.10;;;;;;;14.08;58.04;102381.13;4984710;28;20038;-47
2023/05/02 03:29:21;;;;;;;7.30;2.05;;;;;;;13.75;58.16;102384.72;4981257;28;20030;-44
2023/05/02 03:31:46;;;;;;;9.13;2.10;;;;;;;13.98;57.99;102394.84;4989292;28;20037;-42
2023/05/02 03:34:12;;;;;;;8.77;2.03;;;;;;;13.91;57.81;102399.06;4989612;28;20035;-46
2023/05/02 03:36:37;;;;;;;9.68;2.40;;;;;;;13.84;57.87;102397.16;4986200;28;20035;-42
2023/05/02 03:39:03;;;;;;;8.45;2.05;;;;;;;13.82;58.23;102396.22;4986389;28;20338;-43
2023/05/02 03:41:28;;;;;;;7.22;1.80;;;;;;;13.92;58.11;102392.06;4980236;28;20069;-44
2023/05/02 03:43:53;;;;;;;9.13;1.80;;;;;;;14.16;56.78;102390.03;4983745;28;20046;-44
2023/05/02 03:46:20;;;;;;;5.85;1.77;;;;;;;13.99;56.99;102396.63;4980100;28;20030;-44
2023/05/02 03:48:46;;;;;;;11.00;2.00;;;;;;;13.73;56.41;102407.38;5002028;23;20046;-43
2023/05/02 03:51:11;;;;;;;8.35;1.80;;;;;;;14.17;55.45;102408.44;4982597;28;20032;-42
2023/05/02 03:53:36;;;;;;;6.15;1.83;;;;;;;13.86;55.86;102407.66;4978614;28;20069;-42
2023/05/02 03:56:02;;;;;;;8.15;1.88;;;;;;;13.68;56.26;102408.09;4982535;28;20093;-41
2023/05/02 03:58:27;;;;;;;6.70;1.60;;;;;;;13.81;56.14;102407.56;4978896;28;20096;-40
2023/05/02 04:00:53;;;;;;;6.60;2.00;;;;;;;13.92;55.71;102413.06;4980137;28;20046;-40
2023/05/02 04:03:19;;;;;;;6.63;1.83;;;;;;;13.91;55.35;102416.53;4979345;28;20030;-41
2023/05/02 04:05:45;;;;;;;8.75;1.77;;;;;;;14.06;55.38;102420.41;4980963;28;20038;-42
2023/05/02 04:08:10;;;;;;;6.78;1.88;;;;;;;13.90;55.70;102425.25;4982179;28;20417;-38
2023/05/02 04:10:35;;;;;;;8.10;1.85;;;;;;;13.63;56.51;102420.22;4977052;28;20061;-41
2023/05/02 04:13:02;;;;;;;8.43;2.00;;;;;;;13.46;56.63;102425.03;4982591;28;20035;-41
2023/05/02 04:15:28;;;;;;;6.45;1.83;;;;;;;13.70;56.67;102435.25;4980871;28;20022;-41
2023/05/02 04:17:53;;;;;;;7.22;2.20;;;;;;;13.85;55.83;102434.72;4984624;28;20057;-40
2023/05/02 04:20:19;;;;;;;8.00;2.05;;;;;;;13.66;56.02;102430.78;4979422;28;20084;-43
2023/05/02 04:22:46;;;;;;;8.52;2.40;;;;;;;13.88;55.85;102433.09;4982187;28;20447;-42
2023/05/02 04:25:12;;;;;;;8.05;1.92;;;;;;;13.98;55.77;102439.41;4982299;28;20086;-43
2023/05/02 04:27:37;;;;;;;7.07;2.10;;;;;;;13.87;55.65;102446.16;4978610;28;20514;-42
2023/05/02 04:30:03;;;;;;;8.80;2.03;;;;;;;13.82;55.95;102446.03;4982329;28;20043;-43
2023/05/02 04:32:29;;;;;;;7.35;1.77;;;;;;;13.72;56.24;102454.53;4979125;28;20034;-45
2023/05/02 04:34:54;;;;;;;6.53;1.83;;;;;;;13.95;55.79;102452.47;4983130;28;20393;-42
2023/05/02 04:37:20;;;;;;;6.47;2.30;;;;;;;14.04;55.17;102457.94;4980756;28;20038;-42
2023/05/02 04:39:45;;;;;;;9.98;2.15;;;;;;;14.10;55.27;102473.81;4983748;28;20126;-43
2023/05/02 04:42:10;;;;;;;8.50;2.20;;;;;;;14.33;54.54;102470.03;4984019;28;20042;-41
2023/05/02 04:44:35;;;;;;;13.18;2.55;;;;;;;13.89;55.02;102471.56;4979999;28;20034;-43
2023/05/02 04:47:01;;;;;;;10.85;2.35;;;;;;;14.03;54.96;102478.03;4986373;28;20038;-45
2023/05/02 04:49:26;;;;;;;9.55;2.17;;;;;;;13.70;55.44;102477.19;4985882;28;20071;-41
2023/05/02 04:51:52;;;;;;;7.95;2.60;;;;;;;13.90;54.93;102473.34;4988175;28;20092;-44
2023/05/02 04:54:17;;;;;;;7.88;2.30;;;;;;;13.62;55.55;102478.69;4984028;28;20072;-41
2023/05/02 04:56:43;;;;;;;10.13;2.80;;;;;;;13.93;54.84;102485.63;4986560;28;20085;-40
2023/05/02 04:59:08;;;;;;;10.60;2.88;;;;;;;13.87;54.76;102486.34;4985812;28;20117;-42
2023/05/02 05:01:33;;;;;;;20.75;9.20;;;;;;;13.85;55.11;102482.81;4983145;28;20027;-41
2023/05/02 05:03:59;;;;;;;15.07;4.00;;;;;;;13.83;54.79;102489.75;4986568;28;20039;-40
2023/05/02 05:06:25;;;;;;;11.15;2.90;;;;;;;13.77;55.42;102484.34;4984100;28;20052;-43
2023/05/02 05:08:50;;;;;;;12.27;3.03;;;;;;;13.27;55.80;102494.34;4986910;28;20034;-42
2023/05/02 05:11:16;;;;;;;11.30;3.03;;;;;;;13.56;55.05;102494.25;4984419;28;20621;-40
2023/05/02 05:13:41;;;;;;;12.43;2.80;;;;;;;13.62;54.99;102495.31;4986634;28;20031;-40
2023/05/02 05:16:07;;;;;;;14.88;3.08;;;;;;;13.53;55.23;102502.06;4986108;28;20401;-41
2023/05/02 05:18:39;;;;;;;17.65;3.25;;;;;;;13.82;54.58;102498.47;4982375;28;20030;-42
2023/05/02 05:21:09;;;;;;;10.75;3.13;;;;;;;13.60;54.49;102501.38;4986678;28;20072;-43
2023/05/02 05:23:37;;;;;;;9.43;2.85;;;;;;;13.48;54.26;102522.00;4982326;28;20030;-42
2023/05/02 05:26:15;;;;;;;9.30;2.83;;;;;;;13.37;53.97;102526.94;4985408;28;20030;-41
2023/05/02 05:28:42;;;;;;;10.10;2.50;;;;;;;13.40;53.34;102520.06;4982577;28;20097;-41
2023/05/02 05:31:09;;;;;;;12.68;3.00;;;;;;;13.94;52.21;102526.72;4985943;28;20057;-43
2023/05/02 05:33:35;;;;;;;12.75;3.15;;;;;;;13.82;52.22;102527.31;4983024;28;20027;-40
2023/05/02 05:36:09;;;;;;;9.43;2.80;;;;;;;14.09;51.49;102529.72;4986887;28;20232;-41
2023/05/02 05:38:35;;;;;;;10.67;2.70;;;;;;;13.72;52.31;102535.78;4983046;28;20038;-42
2023/05/02 05:41:00;;;;;;;7.75;2.90;;;;;;;13.93;51.87;102532.81;4985875;28;20035;-41
2023/05/02 05:43:27;;;;;;;10.13;2.80;;;;;;;13.95;51.16;102544.25;4984255;28;20030;-41
2023/05/02 05:45:53;;;;;;;11.20;2.67;;;;;;;13.93;51.29;102543.31;4985912;28;20034;-44
2023/05/02 05:48:19;;;;;;;12.15;3.35;;;;;;;14.23;50.38;102552.84;4981956;28;20042;-40
2023/05/02 05:50:45;;;;;;;10.88;2.90;;;;;;;14.12;50.16;102551.69;4985742;28;20031;-42
2023/05/02 05:53:10;;;;;;;14.07;2.90;;;;;;;14.56;49.78;102552.81;4986393;28;20042;-41
2023/05/02 05:55:37;;;;;;;9.65;2.63;;;;;;;14.78;49.17;102563.81;4984743;28;20409;-42
2023/05/02 05:58:02;;;;;;;9.32;2.50;;;;;;;14.79;49.56;102570.84;4987294;28;20038;-46
2023/05/02 06:00:28;;;;;;;10.77;2.83;;;;;;;14.90;49.83;102575.47;4983183;28;20027;-43
2023/05/02 06:02:53;;;;;;;13.70;2.88;;;;;;;15.09;49.19;102575.91;4985977;28;20030;-42
2023/05/02 06:05:18;;;;;;;15.30;3.00;;;;;;;15.28;48.39;102576.31;4982375;28;20038;-41
2023/05/02 06:07:44;;;;;;;9.60;2.83;;;;;;;14.87;48.53;102593.81;4982841;28;20590;-42
2023/05/02 06:10:09;;;;;;;14.02;3.20;;;;;;;14.82;48.82;102591.94;4984398;28;20038;-41
2023/05/02 06:12:35;;;;;;;10.63;2.88;;;;;;;14.67;48.43;102591.56;4981061;28;20081;-41
2023/05/02 06:15:00;;;;;;;12.35;2.95;;;;;;;14.50;48.35;102601.66;4984861;28;20045;-41
2023/05/02 06:17:26;;;;;;;10.02;2.92;;;;;;;14.16;48.97;102607.72;4981734;28;20044;-45
2023/05/02 06:19:51;;;;;;;13.73;2.85;;;;;;;13.94;49.73;102606.28;4986263;28;20061;-40
2023/05/02 06:22:16;;;;;;;10.60;3.15;;;;;;;14.09;49.66;102606.69;4982847;28;20034;-38
2023/05/02 06:24:42;;;;;;;14.40;3.25;;;;;;;13.92;50.10;102614.94;4983697;28;20033;-46
2023/05/02 06:27:07;;;;;;;12.75;3.00;;;;;;;13.74;51.22;102610.09;4985583;28;20041;-40
2023/05/02 06:29:32;;;;;;;9.63;2.88;;;;;;;13.94;49.76;102616.78;4982367;28;20516;-43
2023/05/02 06:31:58;;;;;;;8.48;2.53;;;;;;;13.88;49.00;102618.34;4985259;28;20493;-41
2023/05/02 06:34:23;;;;;;;12.00;2.97;;;;;;;14.18;48.16;102625.28;4982284;28;20092;-42
2023/05/02 06:36:54;;;;;;;11.25;2.97;;;;;;;14.16;48.18;102628.72;4986095;28;20121;-41
2023/05/02 06:39:19;;;;;;;8.38;2.42;;;;;;;14.45;47.63;102626.91;4981154;28;20042;-42
2023/05/02 06:41:44;;;;;;;8.68;2.45;;;;;;;14.48;46.04;102638.34;4985415;28;20034;-43
2023/05/02 06:44:10;;;;;;;10.93;2.42;;;;;;;14.47;46.61;102631.31;4986884;28;20034;-42
2023/05/02 06:46:35;;;;;;;11.05;2.50;;;;;;;14.61;45.76;102647.44;4983067;28;20188;-42
2023/05/02 06:49:00;;;;;;;8.95;2.25;;;;;;;15.01;45.42;102644.00;4986071;28;20045;-41
2023/05/02 06:51:26;;;;;;;7.72;2.33;;;;;;;15.42;45.30;102648.47;4981555;28;20073;-41
2023/05/02 06:53:51;;;;;;;9.48;2.60;;;;;;;15.44;44.16;102649.38;4974040;28;20031;-43
2023/05/02 06:56:17;;;;;;;9.13;2.13;;;;;;;15.78;43.29;102653.66;4940927;28;20043;-45
2023/05/02 06:58:42;;;;;;;10.27;2.45;;;;;;;15.82;42.71;102651.94;4943824;28;20082;-41
2023/05/02 07:01:07;;;;;;;10.45;2.67;;;;;;;15.92;42.81;102658.31;4944281;28;20375;-43
2023/05/02 07:03:33;;;;;;;8.73;2.30;;;;;;;16.35;42.66;102654.69;4940961;28;20083;-41
2023/05/02 07:05:58;;;;;;;8.80;2.35;;;;;;;16.45;42.78;102657.56;4946060;28;20041;-42
2023/05/02 07:08:24;;;;;;;8.85;2.63;;;;;;;15.91;42.15;102656.53;4940953;28;20046;-42
2023/05/02 07:10:49;;;;;;;7.13;2.40;;;;;;;15.63;43.21;102662.94;4945320;28;20047;-41
2023/05/02 07:13:15;;;;;;;11.40;2.65;;;;;;;15.51;44.18;102670.53;4944089;28;20166;-40
2023/05/02 07:15:40;;;;;;;11.00;2.50;;;;;;;15.49;44.96;102680.16;4960508;28;20489;-44
2023/05/02 07:18:05;;;;;;;12.52;2.72;;;;;;;14.97;46.64;102673.69;4963637;28;20553;-41
2023/05/02 07:20:31;;;;;;;9.68;2.60;;;;;;;14.44;48.04;102673.25;4960640;28;20039;-41
2023/05/02 07:22:56;;;;;;;8.80;2.35;;;;;;;14.42;46.45;102682.81;4965596;28;20039;-42
2023/05/02 07:25:22;;;;;;;8.60;2.80;;;;;;;14.75;46.12;102688.03;4961992;28;20122;-41
2023/05/02 07:27:47;;;;;;;9.35;2.97;;;;;;;15.11;45.11;102682.78;4964476;28;20122;-40
2023/05/02 07:30:12;;;;;;;12.30;2.85;;;;;;;14.88;44.47;102681.34;4963897;28;20031;-40
2023/05/02 07:32:38;;;;;;;11.18;3.13;;;;;;;15.30;44.13;102686.72;4959964;28;20058;-41
2023/05/02 07:35:03;;;;;;;9.18;3.00;;;;;;;15.67;43.35;102694.63;4963242;28;20143;-42
2023/05/02 07:37:33;;;;;;;11.02;2.70;;;;;;;15.37;42.86;102691.25;4959875;28;20128;-43
2023/05/02 07:39:58;;;;;;;8.48;2.40;;;;;;;15.28;43.23;102694.56;4963491;28;20512;-40
2023/05/02 07:42:28;;;;;;;10.43;2.47;;;;;;;15.59;42.28;102704.06;4959232;28;20035;-42
2023/05/02 07:44:54;;;;;;;7.68;2.30;;;;;;;16.22;41.71;102704.47;4963112;28;20145;-46
2023/05/02 07:47:19;;;;;;;9.05;2.65;;;;;;;16.49;41.61;102695.34;4962830;28;20559;-43
2023/05/02 07:49:44;;;;;;;7.03;2.60;;;;;;;16.82;40.93;102703.88;4964876;28;20125;-44
2023/05/02 07:52:10;;;;;;;8.57;2.90;;;;;;;16.85;40.02;102700.38;4964429;28;20034;-40
2023/05/02 07:54:35;;;;;;;7.47;2.15;;;;;;;16.66;39.14;102706.19;4961479;28;22601;-43
2023/05/02 07:57:02;;;;;;;5.93;1.98;;;;;;;16.71;39.50;102715.94;4964826;28;20054;-42
2023/05/02 07:59:29;;;;;;;5.35;1.90;;;;;;;16.74;37.69;102708.09;4960283;28;20035;-41
2023/05/02 08:01:54;;;;;;;6.50;2.00;;;;;;;16.29;37.66;102710.75;4964835;28;20035;-44
2023/05/02 08:04:20;;;;;;;7.45;2.25;;;;;;;15.95;37.92;102721.47;4962805;28;20426;-42
2023/05/02 08:06:45;;;;;;;7.03;1.80;;;;;;;15.20;39.13;102727.66;4965301;28;20045;-42
2023/05/02 08:09:10;;;;;;;8.18;2.03;;;;;;;15.39;38.22;102724.59;4963158;28;20419;-46
2023/05/02 08:11:36;;;;;;;5.55;2.17;;;;;;;15.57;37.87;102724.16;4959263;28;20216;-39
2023/05/02 08:14:01;;;;;;;5.35;1.75;;;;;;;15.81;36.55;102722.06;4961686;28;20031;-43
2023/05/02 08:16:26;;;;;;;9.55;1.85;;;;;;;16.54;37.08;102714.72;4959543;28;20038;-41
2023/05/02 08:18:52;;;;;;;5.88;2.00;;;;;;;16.17;36.89;102721.94;4963271;28;20465;-39
2023/05/02 08:21:17;;;;;;;6.78;1.90;;;;;;;16.46;35.70;102729.53;4960279;28;20094;-43
2023/05/02 08:23:45;;;;;;;7.97;1.90;;;;;;;17.14;35.88;102735.13;4964671;28;20042;-39
2023/05/02 08:26:10;;;;;;;7.80;2.00;;;;;;;16.97;35.61;102737.47;4963857;28;20027;-43
2023/05/02 08:28:35;;;;;;;6.20;2.00;;;;;;;16.04;35.29;102733.06;4960915;28;20508;-46
2023/05/02 08:31:01;;;;;;;6.82;2.17;;;;;;;16.49;34.66;102735.72;4963864;28;20129;-44
2023/05/02 08:33:27;;;;;;;5.75;1.90;;;;;;;15.74;35.03;102735.03;4960730;28;20117;-42
2023/05/02 08:35:52;;;;;;;7.07;1.92;;;;;;;16.40;35.23;102734.66;4964613;28;20027;-41
2023/05/02 08:38:17;;;;;;;7.35;1.70;;;;;;;16.25;35.08;102732.63;4960998;28;20046;-42
2023/05/02 08:40:43;;;;;;;4.47;1.60;;;;;;;15.90;35.92;102747.69;4963541;28;20039;-42
2023/05/02 08:43:10;;;;;;;9.63;2.03;;;;;;;15.76;36.20;102757.03;4963476;28;20034;-42
2023/05/02 08:45:39;;;;;;;5.70;1.90;;;;;;;16.26;35.47;102757.19;4959906;28;20031;-40
2023/05/02 08:48:07;;;;;;;5.53;1.70;;;;;;;16.01;35.62;102747.91;4964154;28;20039;-40
2023/05/02 08:50:37;;;;;;;6.63;2.00;;;;;;;16.32;35.54;102752.94;4961822;28;20027;-42
2023/05/02 08:53:05;;;;;;;4.40;2.05;;;;;;;16.57;35.40;102749.91;4965617;28;20050;-42
2023/05/02 08:55:31;;;;;;;5.60;2.17;;;;;;;15.88;34.85;102759.03;4961438;28;20733;-41
2023/05/02 08:57:57;;;;;;;5.45;2.05;;;;;;;15.88;35.63;102759.03;4965306;28;20090;-43
2023/05/02 09:00:23;;;;;;;4.70;1.63;;;;;;;16.10;34.66;102748.97;4961682;28;20070;-39
2023/05/02 09:02:48;;;;;;;6.35;2.10;;;;;;;15.80;35.67;102754.47;4963816;28;20031;-41
2023/05/02 09:05:19;;;;;;;6.88;1.77;;;;;;;16.11;34.87;102760.38;4962510;28;20041;-40
2023/05/02 09:07:47;;;;;;;7.22;2.17;;;;;;;15.48;37.76;102758.13;4959654;28;20093;-40
2023/05/02 09:10:14;;;;;;;6.22;2.10;;;;;;;16.15;35.49;102773.66;4962412;28;20043;-42
2023/05/02 09:12:40;;;;;;;7.53;2.40;;;;;;;16.54;35.44;102770.03;4960705;28;20472;-44
2023/05/02 09:15:09;;;;;;;8.32;2.53;;;;;;;15.41;38.22;102772.84;4963897;28;20023;-42
2023/05/02 09:17:39;;;;;;;5.70;2.20;;;;;;;16.35;36.52;102768.78;4958812;28;20039;-41
2023/05/02 09:20:05;;;;;;;6.55;2.33;;;;;;;16.06;35.78;102783.97;4962058;28;20118;-41
2023/05/02 09:22:30;;;;;;;7.38;2.60;;;;;;;15.97;36.26;102778.53;4959148;28;20054;-42
2023/05/02 09:24:56;;;;;;;6.45;2.40;;;;;;;15.66;36.36;102778.72;4963544;28;20054;-41
2023/05/02 09:27:21;;;;;;;5.13;2.30;;;;;;;15.94;37.96;102782.81;4960266;28;20561;-42
2023/05/02 09:29:46;;;;;;;8.15;2.45;;;;;;;16.04;34.88;102775.16;4962101;28;20690;-43
2023/05/02 09:32:12;;;;;;;6.88;2.38;;;;;;;16.31;34.51;102763.44;4966010;28;20042;-41
2023/05/02 09:34:38;;;;;;;7.43;2.30;;;;;;;16.73;34.58;102776.56;4962623;28;20097;-37
2023/05/02 09:37:04;;;;;;;8.23;2.40;;;;;;;16.62;35.32;102782.53;4965594;28;20074;-37
2023/05/02 09:39:30;;;;;;;7.20;2.42;;;;;;;15.87;36.14;102781.81;4960554;28;20030;-36
2023/05/02 09:41:56;;;;;;;6.15;2.22;;;;;;;16.44;35.14;102784.78;4966327;28;20038;-39
2023/05/02 09:44:34;;;;;;;9.10;2.70;;;;;;;16.34;35.27;102788.09;4962666;28;20031;-42
2023/05/02 09:47:01;;;;;;;7.03;2.03;;;;;;;16.51;33.89;102785.78;4965503;28;20142;-44
2023/05/02 09:49:38;;;;;;;6.43;2.15;;;;;;;16.63;34.20;102780.78;4962320;28;20101;-40
2023/05/02 09:52:18;;;;;;;4.90;2.05;;;;;;;16.83;33.37;102792.53;4965556;28;20066;-43
2023/05/02 09:54:45;;;;;;;9.27;2.50;;;;;;;16.30;35.04;102796.75;4963662;28;20090;-42
2023/05/02 09:57:10;;;;;;;7.10;2.42;;;;;;;16.53;34.03;102795.47;4966563;28;20035;-40
2023/05/02 09:59:37;;;;;;;8.15;2.22;;;;;;;16.51;34.03;102802.47;4962036;28;20399;-41
2023/05/02 10:02:04;;;;;;;10.18;2.72;;;;;;;16.91;34.75;102800.59;4976495;28;20045;-40
2023/05/02 10:04:31;;;;;;;6.70;2.13;;;;;;;16.47;35.68;102805.88;4981522;28;20048;-42
2023/05/02 10:06:57;;;;;;;7.40;2.35;;;;;;;16.61;35.56;102801.81;4984783;28;20034;-39
2023/05/02 10:09:24;;;;;;;8.73;2.15;;;;;;;16.73;34.18;102803.78;4979333;28;20035;-38
2023/05/02 10:11:52;;;;;;;8.30;2.17;;;;;;;16.43;33.38;102805.78;4982704;28;20084;-41
2023/05/02 10:14:20;;;;;;;8.43;2.55;;;;;;;16.82;33.64;102808.34;4981972;28;20030;-38
2023/05/02 10:16:53;;;;;;;7.43;2.20;;;;;;;17.11;33.44;102806.22;4984784;28;20432;-39
2023/05/02 10:19:25;;;;;;;6.95;2.05;;;;;;;17.52;32.47;102805.13;4980791;28;20034;-39
2023/05/02 10:21:52;;;;;;;5.72;2.30;;;;;;;17.44;33.22;102805.00;4985279;28;20505;-42
2023/05/02 10:24:19;;;;;;;6.93;2.25;;;;;;;17.58;33.76;102817.53;4982280;28;20038;-40
2023/05/02 10:26:47;;;;;;;11.93;2.58;;;;;;;16.38;35.46;102816.25;4986153;28;20034;-42
2023/05/02 10:29:12;;;;;;;10.80;2.60;;;;;;;16.27;35.70;102812.50;4985534;28;20500;-40
2023/05/02 10:31:39;;;;;;;9.15;2.53;;;;;;;15.82;36.89;102818.53;4981681;28;20092;-40
2023/05/02 10:34:09;;;;;;;7.10;2.38;;;;;;;16.11;36.74;102820.91;4984517;28;20030;-40
2023/05/02 10:36:34;;;;;;;6.53;2.50;;;;;;;16.41;37.00;102815.38;4981955;28;20489;-40
2023/05/02 10:39:02;;;;;;;7.85;2.47;;;;;;;17.04;35.41;102810.50;4984633;28;20056;-39
2023/05/02 10:41:30;;;;;;;7.93;2.80;;;;;;;16.15;36.42;102813.13;4981798;28;20031;-43
2023/05/02 10:43:57;;;;;;;7.75;2.78;;;;;;;16.60;37.05;102815.81;4987475;28;20041;-41
2023/05/02 10:46:35;;;;;;;8.95;2.55;;;;;;;17.05;36.19;102814.91;4989228;28;20035;-42
2023/05/02 10:49:01;;;;;;;9.25;2.80;;;;;;;18.00;35.00;102819.94;4985535;28;20130;-42
2023/05/02 10:51:28;;;;;;;9.60;2.53;;;;;;;17.65;35.54;102815.06;4982040;28;20528;-41
2023/05/02 10:53:54;;;;;;;9.48;2.50;;;;;;;17.59;34.13;102825.47;4985135;28;20034;-37
2023/05/02 10:56:24;;;;;;;6.07;2.70;;;;;;;17.23;34.12;102812.59;4980921;28;20041;-40
2023/05/02 10:58:52;;;;;;;11.77;3.40;;;;;;;17.07;35.19;102815.84;4983369;28;20450;-40
2023/05/02 11:01:23;;;;;;;9.68;3.22;;;;;;;17.22;34.69;102823.09;4980185;28;20405;-38
2023/05/02 11:04:02;;;;;;;8.02;3.15;;;;;;;17.19;35.32;102823.94;4983400;28;20122;-42
2023/05/02 11:06:29;;;;;;;10.45;2.85;;;;;;;17.45;34.72;102830.53;4979745;28;20113;-41
2023/05/02 11:09:19;;;;;;;6.13;2.50;;;;;;;17.04;34.34;102834.22;4983140;28;20068;-45
2023/05/02 11:11:46;;;;;;;8.30;2.50;;;;;;;17.08;34.88;102833.41;4980237;28;20038;-42
2023/05/02 11:14:37;;;;;;;7.75;2.60;;;;;;;17.02;35.82;102831.53;4982909;28;20072;-41
2023/05/02 11:17:03;;;;;;;8.70;2.70;;;;;;;16.71;34.46;102834.47;4980515;28;20034;-41
2023/05/02 11:19:50;;;;;;;7.20;2.72;;;;;;;17.05;35.36;102836.00;4978906;28;20401;-41
2023/05/02 11:22:19;;;;;;;12.80;2.53;;;;;;;16.12;36.13;102838.47;4983173;28;20370;-40
2023/05/02 11:24:49;;;;;;;8.73;2.83;;;;;;;16.22;35.58;102843.09;4980320;28;20072;-41